createdAt,value
2018-12-30T00:00:07.477Z,98310.91
2018-12-30T00:05:10.912Z,98309.53
2018-12-30T00:10:14.246Z,98302.24
2018-12-30T00:15:17.628Z,98305.17
2018-12-30T00:20:20.931Z,98296.10
2018-12-30T00:25:24.273Z,98304.38
2018-12-30T00:30:28.588Z,98288.47
2018-12-30T00:35:31.857Z,98293.17
2018-12-30T00:40:35.145Z,98289.25
2018-12-30T00:45:38.425Z,98273.34
2018-12-30T00:50:41.714Z,98267.69
2018-12-30T00:55:45.044Z,98269.70
2018-12-30T01:00:48.341Z,98259.77
2018-12-30T01:05:50.896Z,98264.75
2018-12-30T01:10:54.356Z,98275.79
2018-12-30T01:15:57.783Z,98270.54
2018-12-30T01:21:01.264Z,98265.27
2018-12-30T01:26:03.908Z,98265.95
2018-12-30T01:31:06.524Z,98258.61
2018-12-30T01:36:09.079Z,98262.85
2018-12-30T01:41:11.606Z,98261.03
2018-12-30T01:46:14.165Z,98264.51
2018-12-30T01:51:17.023Z,98269.99
2018-12-30T01:56:19.563Z,98283.30
2018-12-30T02:01:22.107Z,98276.45
2018-12-30T02:06:24.811Z,98281.80
2018-12-30T02:11:27.343Z,98286.03
2018-12-30T02:16:29.891Z,98281.69
2018-12-30T02:21:40.915Z,98280.88
2018-12-30T02:26:36.704Z,98278.75
2018-12-30T02:31:39.964Z,98280.48
2018-12-30T02:36:43.230Z,98270.61
2018-12-30T02:41:46.547Z,98265.46
2018-12-30T02:46:49.902Z,98264.60
2018-12-30T02:51:53.276Z,98262.94
2018-12-30T02:56:56.719Z,98260.87
2018-12-30T03:01:59.983Z,98259.23
2018-12-30T03:07:03.265Z,98255.35
2018-12-30T03:12:06.635Z,98252.37
2018-12-30T03:17:09.901Z,98250.23
2018-12-30T03:22:13.165Z,98265.65
2018-12-30T03:27:16.589Z,98264.81
2018-12-30T03:32:19.838Z,98261.78
2018-12-30T03:37:23.234Z,98256.99
2018-12-30T03:42:26.531Z,98247.95
2018-12-30T03:47:29.956Z,98263.02
2018-12-30T03:52:33.367Z,98250.94
2018-12-30T03:57:36.640Z,98255.31
2018-12-30T04:02:41.778Z,98266.73
2018-12-30T04:07:43.178Z,98260.78
2018-12-30T04:12:46.456Z,98259.95
2018-12-30T04:17:49.812Z,98262.02
2018-12-30T04:22:53.058Z,98263.75
2018-12-30T04:27:56.326Z,98264.60
2018-12-30T04:32:59.814Z,98274.92
2018-12-30T04:38:03.121Z,98271.45
2018-12-30T04:43:06.500Z,98273.17
2018-12-30T04:48:09.756Z,98279.67
2018-12-30T04:53:13.062Z,98279.21
2018-12-30T04:58:16.412Z,98271.87
2018-12-30T05:03:19.817Z,98274.94
2018-12-30T05:08:23.149Z,98278.80
2018-12-30T05:13:26.548Z,98282.62
2018-12-30T05:18:29.834Z,98290.38
2018-12-30T05:23:33.168Z,98290.38
2018-12-30T05:28:36.474Z,98289.02
2018-12-30T05:33:39.912Z,98288.61
2018-12-30T05:38:43.284Z,98290.28
2018-12-30T05:43:46.558Z,98293.19
2018-12-30T05:48:49.824Z,98303.50
2018-12-30T05:53:53.244Z,98313.38
2018-12-30T05:58:56.508Z,98312.84
2018-12-30T06:03:59.972Z,98321.80
2018-12-30T06:09:03.321Z,98332.98
2018-12-30T06:14:06.577Z,98343.09
2018-12-30T06:19:09.989Z,98345.80
2018-12-30T06:24:13.299Z,98360.70
2018-12-30T06:29:16.556Z,98362.73
2018-12-30T06:34:19.983Z,98380.79
2018-12-30T06:39:23.516Z,98388.80
2018-12-30T06:44:27.043Z,98397.43
2018-12-30T06:49:30.314Z,98405.53
2018-12-30T06:54:33.582Z,98417.48
2018-12-30T06:59:37.016Z,98424.61
2018-12-30T07:04:40.296Z,98421.08
2018-12-30T07:09:43.671Z,98423.84
2018-12-30T07:14:46.926Z,98437.39
2018-12-30T07:19:50.201Z,98438.12
2018-12-30T07:24:53.636Z,98439.02
2018-12-30T07:29:57.147Z,98443.20
2018-12-30T07:35:00.493Z,98448.27
2018-12-30T07:40:03.938Z,98464.74
2018-12-30T07:45:07.346Z,98464.64
2018-12-30T07:50:10.784Z,98491.41
2018-12-30T07:55:14.212Z,98491.37
2018-12-30T08:00:17.580Z,98491.66
2018-12-30T08:05:20.926Z,98502.42
2018-12-30T08:10:24.304Z,98505.36
2018-12-30T08:15:27.700Z,98512.52
2018-12-30T08:20:31.215Z,98503.91
2018-12-30T08:25:34.628Z,98510.80
2018-12-30T08:30:38.061Z,98510.84
2018-12-30T08:35:41.517Z,98522.05
2018-12-30T08:40:44.860Z,98531.91
2018-12-30T08:45:48.105Z,98546.48
2018-12-30T08:50:51.537Z,98552.00
2018-12-30T08:55:54.924Z,98567.92
2018-12-30T09:00:58.280Z,98577.39
2018-12-30T09:06:02.152Z,98599.30
2018-12-30T09:11:05.619Z,98617.41
2018-12-30T09:16:09.137Z,98630.80
2018-12-30T09:21:12.409Z,98632.94
2018-12-30T09:26:15.769Z,98641.94
2018-12-30T09:31:19.237Z,98657.45
2018-12-30T09:36:22.828Z,98654.31
2018-12-30T09:41:26.288Z,98664.70
2018-12-30T09:46:29.572Z,98657.77
2018-12-30T09:51:33.002Z,98665.55
2018-12-30T09:56:36.379Z,98686.28
2018-12-30T10:01:39.685Z,98679.41
2018-12-30T10:06:43.088Z,98683.67
2018-12-30T10:11:46.792Z,98690.02
2018-12-30T10:16:50.195Z,98692.59
2018-12-30T10:21:53.606Z,98695.16
2018-12-30T10:26:57.028Z,98696.88
2018-12-30T10:32:00.407Z,98698.62
2018-12-30T10:37:03.806Z,98699.52
2018-12-30T10:42:07.243Z,98709.83
2018-12-30T10:47:10.753Z,98705.09
2018-12-30T10:52:14.073Z,98713.36
2018-12-30T10:57:17.638Z,98720.73
2018-12-30T11:02:21.049Z,98712.97
2018-12-30T11:07:24.532Z,98714.99
2018-12-30T11:12:27.920Z,98716.79
2018-12-30T11:17:31.421Z,98722.39
2018-12-30T11:22:34.985Z,98720.12
2018-12-30T11:27:38.287Z,98716.03
2018-12-30T11:32:41.641Z,98715.97
2018-12-30T11:37:45.140Z,98718.61
2018-12-30T11:42:48.676Z,98725.03
2018-12-30T11:47:52.180Z,98717.23
2018-12-30T11:52:55.545Z,98730.97
2018-12-30T11:58:01.082Z,98729.67
2018-12-30T12:03:04.425Z,98734.03
2018-12-30T12:08:07.829Z,98723.18
2018-12-30T12:13:11.333Z,98736.53
2018-12-30T12:18:14.806Z,98740.77
2018-12-30T12:23:18.189Z,98743.27
2018-12-30T12:28:21.696Z,98756.26
2018-12-30T12:33:25.224Z,98750.23
2018-12-30T12:38:28.661Z,98743.66
2018-12-30T12:43:32.397Z,98753.58
2018-12-30T12:48:35.930Z,98741.86
2018-12-30T12:53:39.434Z,98760.91
2018-12-30T12:58:42.977Z,98779.79
2018-12-30T13:03:46.506Z,98770.16
2018-12-30T13:08:49.910Z,98782.73
2018-12-30T13:13:53.467Z,98780.15
2018-12-30T13:18:56.949Z,98776.02
2018-12-30T13:24:00.496Z,98773.88
2018-12-30T13:29:04.042Z,98779.13
2018-12-30T13:34:07.716Z,98799.91
2018-12-30T13:39:11.189Z,98798.67
2018-12-30T13:44:14.762Z,98799.45
2018-12-30T13:49:18.444Z,98802.43
2018-12-30T13:54:22.018Z,98812.86
2018-12-30T13:59:25.733Z,98810.68
2018-12-30T14:04:29.292Z,98811.84
2018-12-30T14:09:32.805Z,98808.92
2018-12-30T14:14:36.284Z,98815.06
2018-12-30T14:19:39.721Z,98818.13
2018-12-30T14:24:43.089Z,98825.02
2018-12-30T14:29:46.994Z,98823.70
2018-12-30T14:34:50.723Z,98831.12
2018-12-30T14:39:54.195Z,98839.84
2018-12-30T14:44:57.669Z,98844.56
2018-12-30T14:50:01.188Z,98850.13
2018-12-30T14:55:05.115Z,98857.63
2018-12-30T15:00:09.268Z,98854.55
2018-12-30T15:05:12.741Z,98859.75
2018-12-30T15:10:16.295Z,98859.92
2018-12-30T15:15:19.821Z,98860.80
2018-12-30T15:20:23.162Z,98863.32
2018-12-30T15:25:26.671Z,98873.45
2018-12-30T15:30:30.057Z,98884.73
2018-12-30T15:35:33.610Z,98893.29
2018-12-30T15:40:36.989Z,98890.73
2018-12-30T15:45:40.519Z,98896.58
2018-12-30T15:50:44.299Z,98898.03
2018-12-30T15:55:47.829Z,98897.14
2018-12-30T16:00:51.202Z,98896.30
2018-12-30T16:05:57.799Z,98911.91
2018-12-30T16:10:58.233Z,98901.91
2018-12-30T16:16:01.856Z,98897.53
2018-12-30T16:21:05.432Z,98883.90
2018-12-30T16:26:08.963Z,98891.09
2018-12-30T16:31:12.613Z,98901.08
2018-12-30T16:36:16.029Z,98906.20
2018-12-30T16:41:19.847Z,98898.48
2018-12-30T16:46:23.676Z,98881.63
2018-12-30T16:51:27.264Z,98882.49
2018-12-30T16:56:30.681Z,98881.48
2018-12-30T17:01:34.132Z,98893.23
2018-12-30T17:06:37.656Z,98878.72
2018-12-30T17:11:41.091Z,98879.59
2018-12-30T17:16:44.581Z,98885.30
2018-12-30T17:21:48.016Z,98889.95
2018-12-30T17:26:51.384Z,98892.23
2018-12-30T17:31:55.820Z,98902.53
2018-12-30T17:36:59.220Z,98908.18
2018-12-30T17:42:03.111Z,98919.05
2018-12-30T17:47:06.605Z,98922.05
2018-12-30T17:52:10.108Z,98928.97
2018-12-30T17:57:13.629Z,98922.55
2018-12-30T18:02:16.996Z,98916.06
2018-12-30T18:07:20.385Z,98902.59
2018-12-30T18:12:24.165Z,98921.98
2018-12-30T18:17:28.304Z,98926.71
2018-12-30T18:22:31.772Z,98934.92
2018-12-30T18:27:35.417Z,98937.08
2018-12-30T18:32:38.944Z,98930.60
2018-12-30T18:37:42.516Z,98931.95
2018-12-30T18:42:46.091Z,98935.84
2018-12-30T18:47:49.582Z,98939.68
2018-12-30T18:52:53.106Z,98950.44
2018-12-30T18:57:56.728Z,98941.36
2018-12-30T19:03:00.236Z,98942.20
2018-12-30T19:08:03.799Z,98934.92
2018-12-30T19:13:07.240Z,98933.20
2018-12-30T19:18:11.043Z,98941.41
2018-12-30T19:23:14.629Z,98945.32
2018-12-30T19:28:19.517Z,98953.16
2018-12-30T19:33:22.025Z,98937.73
2018-12-30T19:38:25.736Z,98945.16
2018-12-30T19:43:29.547Z,98946.03
2018-12-30T19:48:33.179Z,98942.13
2018-12-30T19:53:36.653Z,98950.34
2018-12-30T19:58:40.121Z,98931.75
2018-12-30T20:03:44.116Z,98938.69
2018-12-30T20:08:47.516Z,98937.84
2018-12-30T20:13:51.104Z,98949.52
2018-12-30T20:18:54.548Z,98960.78
2018-12-30T20:23:59.100Z,98954.75
2018-12-30T20:29:02.727Z,98955.22
2018-12-30T20:34:06.719Z,98942.30
2018-12-30T20:39:10.098Z,98939.72
2018-12-30T20:44:13.641Z,98936.28
2018-12-30T20:49:17.157Z,98940.66
2018-12-30T20:54:20.532Z,98942.41
2018-12-30T20:59:23.920Z,98938.09
2018-12-30T21:04:27.498Z,98926.02
2018-12-30T21:09:30.888Z,98928.17
2018-12-30T21:14:34.420Z,98929.97
2018-12-30T21:19:37.779Z,98930.41
2018-12-30T21:24:41.362Z,98931.26
2018-12-30T21:29:44.737Z,98933.87
2018-12-30T21:34:48.362Z,98926.14
2018-12-30T21:39:51.725Z,98923.95
2018-12-30T21:44:55.097Z,98931.32
2018-12-30T21:49:58.470Z,98936.55
2018-12-30T21:55:01.846Z,98940.89
2018-12-30T22:00:05.725Z,98937.41
2018-12-30T22:05:09.181Z,98937.91
2018-12-30T22:10:17.070Z,98927.99
2018-12-30T22:15:16.052Z,98926.70
2018-12-30T22:20:19.526Z,98929.78
2018-12-30T22:25:23.068Z,98922.46
2018-12-30T22:30:26.348Z,98922.02
2018-12-30T22:35:29.768Z,98919.03
2018-12-30T22:40:33.248Z,98903.55
2018-12-30T22:45:36.745Z,98906.62
2018-12-30T22:50:40.083Z,98922.21
2018-12-30T22:55:43.525Z,98924.35
2018-12-30T23:00:53.802Z,98916.53
2018-12-30T23:05:57.232Z,98908.28
2018-12-30T23:11:00.526Z,98910.01
2018-12-30T23:16:04.284Z,98905.59
2018-12-30T23:21:07.677Z,98912.91
2018-12-30T23:26:11.061Z,98916.34
2018-12-30T23:31:14.364Z,98919.38
2018-12-30T23:36:17.627Z,98924.59
2018-12-30T23:41:21.013Z,98920.27
2018-12-30T23:46:24.279Z,98914.25
2018-12-30T23:51:27.649Z,98924.61
2018-12-30T23:56:31.105Z,98918.13
